sensor_id;sensor_type;location;lat;lon;timestamp;pressure;altitude;pressure_sealevel;temperature;humidity
68193;BME280;55012;47.562;18.414;2024-02-23T00:02:17;98149.22;;;9.66;100.00
68193;BME280;55012;47.562;18.414;2024-02-23T00:04:42;98145.38;;;9.67;100.00
68193;BME280;55012;47.562;18.414;2024-02-23T00:07:08;98138.84;;;9.68;100.00
68193;BME280;55012;47.562;18.414;2024-02-23T00:09:33;98130.34;;;9.66;100.00
68193;BME280;55012;47.562;18.414;2024-02-23T00:11:59;98126.47;;;9.67;100.00
68193;BME280;55012;47.562;18.414;2024-02-23T00:14:24;98140.81;;;9.71;100.00
68193;BME280;55012;47.562;18.414;2024-02-23T00:16:50;98140.47;;;9.72;100.00
68193;BME280;55012;47.562;18.414;2024-02-23T00:19:15;98138.53;;;9.73;100.00
68193;BME280;55012;47.562;18.414;2024-02-23T00:21:44;98121.91;;;9.71;100.00
68193;BME280;55012;47.562;18.414;2024-02-23T00:24:12;98133.53;;;9.75;100.00
68193;BME280;55012;47.562;18.414;2024-02-23T00:26:38;98111.53;;;9.73;100.00
68193;BME280;55012;47.562;18.414;2024-02-23T00:29:03;98122.72;;;9.75;100.00
68193;BME280;55012;47.562;18.414;2024-02-23T00:31:29;98125.44;;;9.75;100.00
68193;BME280;55012;47.562;18.414;2024-02-23T00:33:54;98119.69;;;9.76;100.00
68193;BME280;55012;47.562;18.414;2024-02-23T00:36:19;98119.69;;;9.76;100.00
68193;BME280;55012;47.562;18.414;2024-02-23T00:38:45;98118.88;;;9.76;100.00
68193;BME280;55012;47.562;18.414;2024-02-23T00:41:10;98103.81;;;9.75;100.00
68193;BME280;55012;47.562;18.414;2024-02-23T00:43:39;98109.59;;;9.73;100.00
68193;BME280;55012;47.562;18.414;2024-02-23T00:46:05;98116.94;;;9.73;100.00
68193;BME280;55012;47.562;18.414;2024-02-23T00:48:31;98110.38;;;9.74;100.00
68193;BME280;55012;47.562;18.414;2024-02-23T00:50:57;98098.81;;;9.73;100.00
68193;BME280;55012;47.562;18.414;2024-02-23T00:53:22;98102.66;;;9.72;100.00
68193;BME280;55012;47.562;18.414;2024-02-23T00:55:47;98096.47;;;9.72;100.00
68193;BME280;55012;47.562;18.414;2024-02-23T00:58:13;98101.88;;;9.72;100.00
68193;BME280;55012;47.562;18.414;2024-02-23T01:00:38;98101.50;;;9.73;100.00
68193;BME280;55012;47.562;18.414;2024-02-23T01:03:04;98103.06;;;9.74;100.00
68193;BME280;55012;47.562;18.414;2024-02-23T01:05:29;98096.88;;;9.74;100.00
68193;BME280;55012;47.562;18.414;2024-02-23T01:07:55;98092.63;;;9.73;100.00
68193;BME280;55012;47.562;18.414;2024-02-23T01:10:20;98091.47;;;9.74;100.00
68193;BME280;55012;47.562;18.414;2024-02-23T01:12:45;98087.22;;;9.73;100.00
68193;BME280;55012;47.562;18.414;2024-02-23T01:15:11;98082.97;;;9.72;100.00
68193;BME280;55012;47.562;18.414;2024-02-23T01:17:36;98082.19;;;9.71;100.00
68193;BME280;55012;47.562;18.414;2024-02-23T01:20:03;98085.28;;;9.73;100.00
68193;BME280;55012;47.562;18.414;2024-02-23T01:22:28;98079.88;;;9.70;100.00
68193;BME280;55012;47.562;18.414;2024-02-23T01:24:53;98082.19;;;9.71;100.00
68193;BME280;55012;47.562;18.414;2024-02-23T01:27:19;98059.81;;;9.71;100.00
68193;BME280;55012;47.562;18.414;2024-02-23T01:29:44;98041.59;;;9.64;100.00
68193;BME280;55012;47.562;18.414;2024-02-23T01:32:09;98036.50;;;9.59;100.00
68193;BME280;55012;47.562;18.414;2024-02-23T01:34:35;98015.63;;;9.52;100.00
68193;BME280;55012;47.562;18.414;2024-02-23T01:37:00;97999.75;;;9.47;100.00
68193;BME280;55012;47.562;18.414;2024-02-23T01:39:26;97969.19;;;9.40;100.00
68193;BME280;55012;47.562;18.414;2024-02-23T01:41:51;97931.72;;;9.35;100.00
68193;BME280;55012;47.562;18.414;2024-02-23T01:44:16;97917.00;;;9.28;100.00
68193;BME280;55012;47.562;18.414;2024-02-23T01:46:43;97889.16;;;9.21;100.00
68193;BME280;55012;47.562;18.414;2024-02-23T01:49:09;97862.09;;;9.14;100.00
68193;BME280;55012;47.562;18.414;2024-02-23T01:51:34;97822.72;;;9.09;100.00
68193;BME280;55012;47.562;18.414;2024-02-23T01:54:00;97794.09;;;8.97;100.00
68193;BME280;55012;47.562;18.414;2024-02-23T01:56:26;97770.91;;;8.89;100.00
68193;BME280;55012;47.562;18.414;2024-02-23T01:58:52;97735.75;;;8.82;100.00
68193;BME280;55012;47.562;18.414;2024-02-23T02:01:19;97709.88;;;8.74;100.00
68193;BME280;55012;47.562;18.414;2024-02-23T02:03:44;97667.78;;;8.62;100.00
68193;BME280;55012;47.562;18.414;2024-02-23T02:06:10;97629.19;;;8.55;100.00
68193;BME280;55012;47.562;18.414;2024-02-23T02:08:35;97593.72;;;8.49;100.00
68193;BME280;55012;47.562;18.414;2024-02-23T02:11:01;97570.16;;;8.42;100.00
68193;BME280;55012;47.562;18.414;2024-02-23T02:13:30;97536.19;;;8.34;100.00
68193;BME280;55012;47.562;18.414;2024-02-23T02:16:00;97498.44;;;8.31;100.00
68193;BME280;55012;47.562;18.414;2024-02-23T02:18:26;97465.69;;;8.25;100.00
68193;BME280;55012;47.562;18.414;2024-02-23T02:20:54;97447.97;;;8.21;100.00
68193;BME280;55012;47.562;18.414;2024-02-23T02:23:19;97411.34;;;8.16;100.00
68193;BME280;55012;47.562;18.414;2024-02-23T02:25:45;97391.28;;;8.10;100.00
68193;BME280;55012;47.562;18.414;2024-02-23T02:28:10;97377.03;;;8.06;100.00
68193;BME280;55012;47.562;18.414;2024-02-23T02:30:36;97344.28;;;8.00;100.00
68193;BME280;55012;47.562;18.414;2024-02-23T02:33:01;97341.22;;;7.98;100.00
68193;BME280;55012;47.562;18.414;2024-02-23T02:35:27;97338.91;;;7.97;100.00
68193;BME280;55012;47.562;18.414;2024-02-23T02:37:52;97322.34;;;7.95;100.00
68193;BME280;55012;47.562;18.414;2024-02-23T02:40:17;97310.78;;;7.94;100.00
68193;BME280;55012;47.562;18.414;2024-02-23T02:42:43;97296.53;;;7.94;100.00
68193;BME280;55012;47.562;18.414;2024-02-23T02:45:08;97293.47;;;7.92;100.00
68193;BME280;55012;47.562;18.414;2024-02-23T02:47:33;97285.38;;;7.92;100.00
68193;BME280;55012;47.562;18.414;2024-02-23T02:49:59;97276.53;;;7.91;100.00
68193;BME280;55012;47.562;18.414;2024-02-23T02:52:24;97285.00;;;7.93;100.00
68193;BME280;55012;47.562;18.414;2024-02-23T02:54:50;97285.00;;;7.93;100.00
68193;BME280;55012;47.562;18.414;2024-02-23T02:57:15;97280.44;;;7.97;100.00
68193;BME280;55012;47.562;18.414;2024-02-23T02:59:40;97270.09;;;8.03;100.00
68193;BME280;55012;47.562;18.414;2024-02-23T03:02:06;97258.19;;;8.07;100.00
68193;BME280;55012;47.562;18.414;2024-02-23T03:04:31;97257.06;;;8.12;100.00
68193;BME280;55012;47.562;18.414;2024-02-23T03:06:56;97252.84;;;8.18;100.00
68193;BME280;55012;47.562;18.414;2024-02-23T03:09:22;97265.56;;;8.25;100.00
68193;BME280;55012;47.562;18.414;2024-02-23T03:11:47;97251.38;;;8.28;100.00
68193;BME280;55012;47.562;18.414;2024-02-23T03:14:12;97262.16;;;8.31;100.00
68193;BME280;55012;47.562;18.414;2024-02-23T03:16:38;97251.00;;;8.33;100.00
68193;BME280;55012;47.562;18.414;2024-02-23T03:19:03;97243.75;;;8.37;100.00
68193;BME280;55012;47.562;18.414;2024-02-23T03:21:30;97262.22;;;8.38;100.00
68193;BME280;55012;47.562;18.414;2024-02-23T03:23:55;97260.31;;;8.42;100.00
68193;BME280;55012;47.562;18.414;2024-02-23T03:26:21;97243.41;;;8.46;100.00
68193;BME280;55012;47.562;18.414;2024-02-23T03:28:46;97257.63;;;8.50;100.00
68193;BME280;55012;47.562;18.414;2024-02-23T03:31:11;97260.72;;;8.52;100.00
68193;BME280;55012;47.562;18.414;2024-02-23T03:33:37;97250.75;;;8.56;100.00
68193;BME280;55012;47.562;18.414;2024-02-23T03:36:03;97251.16;;;8.61;100.00
68193;BME280;55012;47.562;18.414;2024-02-23T03:38:29;97258.47;;;8.64;100.00
68193;BME280;55012;47.562;18.414;2024-02-23T03:40:55;97256.53;;;8.68;100.00
68193;BME280;55012;47.562;18.414;2024-02-23T03:43:20;97258.13;;;8.69;100.00
68193;BME280;55012;47.562;18.414;2024-02-23T03:45:46;97266.97;;;8.73;100.00
68193;BME280;55012;47.562;18.414;2024-02-23T03:48:11;97269.28;;;8.71;100.00
68193;BME280;55012;47.562;18.414;2024-02-23T03:50:37;97298.16;;;8.71;100.00
68193;BME280;55012;47.562;18.414;2024-02-23T03:53:02;97290.81;;;8.68;100.00
68193;BME280;55012;47.562;18.414;2024-02-23T03:55:29;97290.06;;;8.71;100.00
68193;BME280;55012;47.562;18.414;2024-02-23T03:57:54;97300.84;;;8.71;100.00
68193;BME280;55012;47.562;18.414;2024-02-23T04:00:19;97292.78;;;8.71;100.00
68193;BME280;55012;47.562;18.414;2024-02-23T04:02:46;97293.50;;;8.68;100.00
68193;BME280;55012;47.562;18.414;2024-02-23T04:05:11;97295.47;;;8.71;100.00
68193;BME280;55012;47.562;18.414;2024-02-23T04:07:36;97284.69;;;8.71;100.00
68193;BME280;55012;47.562;18.414;2024-02-23T04:10:02;97296.63;;;8.73;100.00
68193;BME280;55012;47.562;18.414;2024-02-23T04:12:29;97296.66;;;8.77;100.00
68193;BME280;55012;47.562;18.414;2024-02-23T04:14:56;97298.97;;;8.82;100.00
68193;BME280;55012;47.562;18.414;2024-02-23T04:17:21;97299.75;;;8.86;100.00
68193;BME280;55012;47.562;18.414;2024-02-23T04:19:47;97290.50;;;8.91;100.00
68193;BME280;55012;47.562;18.414;2024-02-23T04:22:12;97304.78;;;8.95;100.00
68193;BME280;55012;47.562;18.414;2024-02-23T04:24:38;97311.34;;;9.01;100.00
68193;BME280;55012;47.562;18.414;2024-02-23T04:27:07;97314.44;;;9.07;100.00
68193;BME280;55012;47.562;18.414;2024-02-23T04:29:33;97323.34;;;9.11;100.00
68193;BME280;55012;47.562;18.414;2024-02-23T04:32:02;97341.84;;;9.12;100.00
68193;BME280;55012;47.562;18.414;2024-02-23T04:34:28;97354.94;;;9.14;100.00
68193;BME280;55012;47.562;18.414;2024-02-23T04:36:54;97365.72;;;9.17;100.00
68193;BME280;55012;47.562;18.414;2024-02-23T04:39:19;97364.22;;;9.20;100.00
68193;BME280;55012;47.562;18.414;2024-02-23T04:41:45;97379.63;;;9.19;100.00
68193;BME280;55012;47.562;18.414;2024-02-23T04:44:10;97398.91;;;9.21;100.00
68193;BME280;55012;47.562;18.414;2024-02-23T04:46:35;97399.28;;;9.23;100.00
68193;BME280;55012;47.562;18.414;2024-02-23T04:49:01;97415.50;;;9.27;100.00
68193;BME280;55012;47.562;18.414;2024-02-23T04:51:27;97427.06;;;9.27;100.00
68193;BME280;55012;47.562;18.414;2024-02-23T04:53:52;97427.84;;;9.28;100.00
68193;BME280;55012;47.562;18.414;2024-02-23T04:56:18;97441.72;;;9.30;100.00
68193;BME280;55012;47.562;18.414;2024-02-23T04:58:44;97439.78;;;9.27;100.00
68193;BME280;55012;47.562;18.414;2024-02-23T05:01:09;97431.28;;;9.25;100.00
68193;BME280;55012;47.562;18.414;2024-02-23T05:03:36;97427.81;;;9.24;100.00
68193;BME280;55012;47.562;18.414;2024-02-23T05:06:02;97424.34;;;9.24;100.00
68193;BME280;55012;47.562;18.414;2024-02-23T05:08:28;97411.22;;;9.19;100.00
68193;BME280;55012;47.562;18.414;2024-02-23T05:10:55;97390.00;;;9.14;100.00
68193;BME280;55012;47.562;18.414;2024-02-23T05:13:20;97386.13;;;9.08;100.00
68193;BME280;55012;47.562;18.414;2024-02-23T05:15:46;97364.13;;;8.98;100.00
68193;BME280;55012;47.562;18.414;2024-02-23T05:18:11;97363.72;;;8.89;100.00
68193;BME280;55012;47.562;18.414;2024-02-23T05:20:36;97345.19;;;8.81;100.00
68193;BME280;55012;47.562;18.414;2024-02-23T05:23:02;97346.69;;;8.71;100.00
68193;BME280;55012;47.562;18.414;2024-02-23T05:25:27;97360.50;;;8.62;100.00
68193;BME280;55012;47.562;18.414;2024-02-23T05:27:53;97376.25;;;8.53;100.00
68193;BME280;55012;47.562;18.414;2024-02-23T05:30:18;97390.06;;;8.44;100.00
68193;BME280;55012;47.562;18.414;2024-02-23T05:32:44;97420.00;;;8.36;100.00
68193;BME280;55012;47.562;18.414;2024-02-23T05:35:09;97466.06;;;8.24;100.00
68193;BME280;55012;47.562;18.414;2024-02-23T05:37:35;97526.78;;;8.17;100.00
68193;BME280;55012;47.562;18.414;2024-02-23T05:40:03;97604.41;;;8.05;100.00
68193;BME280;55012;47.562;18.414;2024-02-23T05:42:37;97708.56;;;7.97;100.00
68193;BME280;55012;47.562;18.414;2024-02-23T05:45:03;97820.69;;;7.86;100.00
68193;BME280;55012;47.562;18.414;2024-02-23T05:47:30;97947.53;;;7.81;100.00
68193;BME280;55012;47.562;18.414;2024-02-23T05:49:56;98112.03;;;7.76;100.00
68193;BME280;55012;47.562;18.414;2024-02-23T05:52:21;98341.47;;;7.69;100.00
68193;BME280;55012;47.562;18.414;2024-02-23T05:54:46;98659.81;;;7.66;100.00
68193;BME280;55012;47.562;18.414;2024-02-23T05:57:12;98797.66;;;7.59;100.00
68193;BME280;55012;47.562;18.414;2024-02-23T05:59:37;98855.22;;;7.55;100.00
68193;BME280;55012;47.562;18.414;2024-02-23T06:02:03;98931.81;;;7.57;100.00
68193;BME280;55012;47.562;18.414;2024-02-23T06:04:28;98966.69;;;7.54;100.00
68193;BME280;55012;47.562;18.414;2024-02-23T06:06:54;98997.38;;;7.53;100.00
68193;BME280;55012;47.562;18.414;2024-02-23T06:09:19;99021.94;;;7.51;100.00
68193;BME280;55012;47.562;18.414;2024-02-23T06:11:44;99043.22;;;7.44;100.00
68193;BME280;55012;47.562;18.414;2024-02-23T06:14:10;99063.16;;;7.43;100.00
68193;BME280;55012;47.562;18.414;2024-02-23T06:16:36;99077.28;;;7.40;100.00
68193;BME280;55012;47.562;18.414;2024-02-23T06:19:02;99086.03;;;7.37;100.00
68193;BME280;55012;47.562;18.414;2024-02-23T06:21:29;99100.56;;;7.36;100.00
68193;BME280;55012;47.562;18.414;2024-02-23T06:23:55;99119.56;;;7.40;100.00
68193;BME280;55012;47.562;18.414;2024-02-23T06:26:21;99118.44;;;7.41;100.00
68193;BME280;55012;47.562;18.414;2024-02-23T06:28:46;99136.38;;;7.37;100.00
68193;BME280;55012;47.562;18.414;2024-02-23T06:31:12;99172.94;;;7.38;100.00
68193;BME280;55012;47.562;18.414;2024-02-23T06:33:38;99192.72;;;7.33;100.00
68193;BME280;55012;47.562;18.414;2024-02-23T06:36:04;99168.06;;;7.31;100.00
68193;BME280;55012;47.562;18.414;2024-02-23T06:38:29;99179.94;;;7.30;100.00
68193;BME280;55012;47.562;18.414;2024-02-23T06:40:55;99192.44;;;7.26;100.00
68193;BME280;55012;47.562;18.414;2024-02-23T06:43:21;99192.44;;;7.26;100.00
68193;BME280;55012;47.562;18.414;2024-02-23T06:45:47;99199.72;;;7.25;100.00
68193;BME280;55012;47.562;18.414;2024-02-23T06:48:12;99198.28;;;7.28;100.00
68193;BME280;55012;47.562;18.414;2024-02-23T06:50:37;99209.84;;;7.28;100.00
68193;BME280;55012;47.562;18.414;2024-02-23T06:53:03;99225.19;;;7.28;100.00
68193;BME280;55012;47.562;18.414;2024-02-23T06:55:28;99230.28;;;7.29;100.00
68193;BME280;55012;47.562;18.414;2024-02-23T06:57:54;99232.19;;;7.29;100.00
68193;BME280;55012;47.562;18.414;2024-02-23T07:00:22;99223.94;;;7.25;100.00
68193;BME280;55012;47.562;18.414;2024-02-23T07:02:48;99213.97;;;7.26;100.00
68193;BME280;55012;47.562;18.414;2024-02-23T07:05:13;99224.56;;;7.31;100.00
68193;BME280;55012;47.562;18.414;2024-02-23T07:07:39;99218.56;;;7.25;100.00
68193;BME280;55012;47.562;18.414;2024-02-23T07:10:06;99227.09;;;7.27;100.00
68193;BME280;55012;47.562;18.414;2024-02-23T07:12:31;99231.06;;;7.30;100.00
68193;BME280;55012;47.562;18.414;2024-02-23T07:14:57;99226.59;;;7.34;100.00
68193;BME280;55012;47.562;18.414;2024-02-23T07:17:22;99228.00;;;7.40;100.00
68193;BME280;55012;47.562;18.414;2024-02-23T07:19:48;99231.47;;;7.41;100.00
68193;BME280;55012;47.562;18.414;2024-02-23T07:22:13;99235.25;;;7.48;100.00
68193;BME280;55012;47.562;18.414;2024-02-23T07:24:40;99242.81;;;7.55;100.00
68193;BME280;55012;47.562;18.414;2024-02-23T07:27:06;99242.03;;;7.54;100.00
68193;BME280;55012;47.562;18.414;2024-02-23T07:29:31;99245.84;;;7.53;100.00
68193;BME280;55012;47.562;18.414;2024-02-23T07:31:56;99257.25;;;7.50;100.00
68193;BME280;55012;47.562;18.414;2024-02-23T07:34:21;99250.41;;;7.53;100.00
68193;BME280;55012;47.562;18.414;2024-02-23T07:36:47;99256.13;;;7.51;100.00
68193;BME280;55012;47.562;18.414;2024-02-23T07:39:13;99260.38;;;7.52;100.00
68193;BME280;55012;47.562;18.414;2024-02-23T07:41:38;99272.28;;;7.51;100.00
68193;BME280;55012;47.562;18.414;2024-02-23T07:44:03;99278.16;;;7.53;100.00
68193;BME280;55012;47.562;18.414;2024-02-23T07:46:29;99271.31;;;7.56;100.00
68193;BME280;55012;47.562;18.414;2024-02-23T07:48:54;99280.63;;;7.58;100.00
68193;BME280;55012;47.562;18.414;2024-02-23T07:51:20;99280.13;;;7.65;100.00
68193;BME280;55012;47.562;18.414;2024-02-23T07:53:45;99280.59;;;7.67;100.00
68193;BME280;55012;47.562;18.414;2024-02-23T07:56:10;99284.88;;;7.68;100.00
68193;BME280;55012;47.562;18.414;2024-02-23T07:58:37;99277.75;;;7.72;100.00
68193;BME280;55012;47.562;18.414;2024-02-23T08:01:03;99271.34;;;7.77;100.00
68193;BME280;55012;47.562;18.414;2024-02-23T08:03:29;99275.16;;;7.76;100.00
68193;BME280;55012;47.562;18.414;2024-02-23T08:05:54;99269.28;;;7.82;100.00
68193;BME280;55012;47.562;18.414;2024-02-23T08:08:20;99281.00;;;7.86;100.00
68193;BME280;55012;47.562;18.414;2024-02-23T08:10:47;99263.72;;;7.87;100.00
68193;BME280;55012;47.562;18.414;2024-02-23T08:13:13;99270.00;;;7.92;100.00
68193;BME280;55012;47.562;18.414;2024-02-23T08:15:38;99268.91;;;7.93;100.00
68193;BME280;55012;47.562;18.414;2024-02-23T08:18:04;99259.84;;;7.97;100.00
68193;BME280;55012;47.562;18.414;2024-02-23T08:20:29;99264.84;;;8.07;100.00
68193;BME280;55012;47.562;18.414;2024-02-23T08:22:54;99255.91;;;8.15;100.00
68193;BME280;55012;47.562;18.414;2024-02-23T08:25:20;99261.91;;;8.21;100.00
68193;BME280;55012;47.562;18.414;2024-02-23T08:27:45;99261.41;;;8.28;100.00
68193;BME280;55012;47.562;18.414;2024-02-23T08:30:10;99249.47;;;8.37;100.00
68193;BME280;55012;47.562;18.414;2024-02-23T08:32:36;99244.63;;;8.43;100.00
68193;BME280;55012;47.562;18.414;2024-02-23T08:35:01;99240.97;;;8.48;100.00
68193;BME280;55012;47.562;18.414;2024-02-23T08:37:27;99224.38;;;8.58;100.00
68193;BME280;55012;47.562;18.414;2024-02-23T08:39:53;99196.53;;;8.66;100.00
68193;BME280;55012;47.562;18.414;2024-02-23T08:42:18;99181.53;;;8.77;100.00
68193;BME280;55012;47.562;18.414;2024-02-23T08:44:44;99175.91;;;8.82;100.00
68193;BME280;55012;47.562;18.414;2024-02-23T08:47:09;99157.84;;;8.95;100.00
68193;BME280;55012;47.562;18.414;2024-02-23T08:49:34;99148.50;;;9.05;100.00
68193;BME280;55012;47.562;18.414;2024-02-23T08:52:00;99144.34;;;9.07;100.00
68193;BME280;55012;47.562;18.414;2024-02-23T08:54:25;99147.38;;;9.06;100.00
68193;BME280;55012;47.562;18.414;2024-02-23T08:56:50;99126.69;;;9.10;100.00
68193;BME280;55012;47.562;18.414;2024-02-23T08:59:16;99119.72;;;9.09;100.00
68193;BME280;55012;47.562;18.414;2024-02-23T09:01:41;99122.63;;;9.16;100.00
68193;BME280;55012;47.562;18.414;2024-02-23T09:04:06;99104.66;;;9.20;100.00
68193;BME280;55012;47.562;18.414;2024-02-23T09:06:32;99099.72;;;9.22;100.00
68193;BME280;55012;47.562;18.414;2024-02-23T09:08:58;99075.97;;;9.15;100.00
68193;BME280;55012;47.562;18.414;2024-02-23T09:11:23;99072.03;;;9.25;100.00
68193;BME280;55012;47.562;18.414;2024-02-23T09:13:49;99056.31;;;9.27;100.00
68193;BME280;55012;47.562;18.414;2024-02-23T09:16:14;99046.81;;;9.33;100.00
68193;BME280;55012;47.562;18.414;2024-02-23T09:18:40;99048.06;;;9.36;100.00
68193;BME280;55012;47.562;18.414;2024-02-23T09:21:05;99040.84;;;9.40;100.00
68193;BME280;55012;47.562;18.414;2024-02-23T09:23:31;99034.53;;;9.48;100.00
68193;BME280;55012;47.562;18.414;2024-02-23T09:25:57;99032.03;;;9.55;100.00
68193;BME280;55012;47.562;18.414;2024-02-23T09:28:22;99025.06;;;9.54;100.00
68193;BME280;55012;47.562;18.414;2024-02-23T09:30:48;99005.59;;;9.48;100.00
68193;BME280;55012;47.562;18.414;2024-02-23T09:33:13;99008.50;;;9.55;100.00
68193;BME280;55012;47.562;18.414;2024-02-23T09:35:38;98995.00;;;9.55;100.00
68193;BME280;55012;47.562;18.414;2024-02-23T09:38:04;98989.19;;;9.53;100.00
68193;BME280;55012;47.562;18.414;2024-02-23T09:40:30;98975.47;;;9.46;100.00
68193;BME280;55012;47.562;18.414;2024-02-23T09:42:56;98968.84;;;9.44;100.00
68193;BME280;55012;47.562;18.414;2024-02-23T09:45:24;98967.09;;;9.36;100.00
68193;BME280;55012;47.562;18.414;2024-02-23T09:47:50;98956.50;;;9.31;100.00
68193;BME280;55012;47.562;18.414;2024-02-23T09:50:17;98964.19;;;9.28;100.00
68193;BME280;55012;47.562;18.414;2024-02-23T09:52:43;98966.31;;;9.23;100.00
68193;BME280;55012;47.562;18.414;2024-02-23T09:55:08;98970.16;;;9.22;100.00
68193;BME280;55012;47.562;18.414;2024-02-23T09:57:34;98969.50;;;9.13;100.00
68193;BME280;55012;47.562;18.414;2024-02-23T10:00:01;98974.56;;;9.14;100.00
68193;BME280;55012;47.562;18.414;2024-02-23T10:02:31;98977.81;;;9.20;100.00
68193;BME280;55012;47.562;18.414;2024-02-23T10:04:58;98979.81;;;9.23;100.00
68193;BME280;55012;47.562;18.414;2024-02-23T10:07:25;98978.66;;;9.36;100.00
68193;BME280;55012;47.562;18.414;2024-02-23T10:09:50;98978.13;;;9.58;100.00
68193;BME280;55012;47.562;18.414;2024-02-23T10:12:16;98986.09;;;9.83;100.00
68193;BME280;55012;47.562;18.414;2024-02-23T10:14:41;98992.88;;;10.05;100.00
68193;BME280;55012;47.562;18.414;2024-02-23T10:17:07;98991.75;;;10.22;100.00
68193;BME280;55012;47.562;18.414;2024-02-23T10:19:33;98996.06;;;10.38;100.00
68193;BME280;55012;47.562;18.414;2024-02-23T10:21:59;98997.53;;;10.52;100.00
68193;BME280;55012;47.562;18.414;2024-02-23T10:24:24;98992.56;;;10.54;100.00
68193;BME280;55012;47.562;18.414;2024-02-23T10:26:51;98980.97;;;10.53;100.00
68193;BME280;55012;47.562;18.414;2024-02-23T10:29:17;98970.56;;;10.55;100.00
68193;BME280;55012;47.562;18.414;2024-02-23T10:31:44;98953.56;;;10.55;100.00
68193;BME280;55012;47.562;18.414;2024-02-23T10:34:14;98961.41;;;10.60;100.00
68193;BME280;55012;47.562;18.414;2024-02-23T10:36:43;98965.75;;;10.64;100.00
68193;BME280;55012;47.562;18.414;2024-02-23T10:39:11;98962.19;;;10.76;100.00
68193;BME280;55012;47.562;18.414;2024-02-23T10:41:39;98957.84;;;10.91;100.00
68193;BME280;55012;47.562;18.414;2024-02-23T10:44:09;98962.06;;;11.08;100.00
68193;BME280;55012;47.562;18.414;2024-02-23T10:46:35;98944.97;;;11.23;100.00
68193;BME280;55012;47.562;18.414;2024-02-23T10:49:01;98941.78;;;11.56;100.00
68193;BME280;55012;47.562;18.414;2024-02-23T10:51:28;98938.75;;;12.00;100.00
68193;BME280;55012;47.562;18.414;2024-02-23T10:53:53;98931.06;;;12.28;100.00
68193;BME280;55012;47.562;18.414;2024-02-23T10:56:20;98922.78;;;12.44;100.00
68193;BME280;55012;47.562;18.414;2024-02-23T10:58:47;98908.44;;;12.44;100.00
68193;BME280;55012;47.562;18.414;2024-02-23T11:01:13;98898.75;;;12.43;100.00
68193;BME280;55012;47.562;18.414;2024-02-23T11:03:42;98897.91;;;12.38;100.00
68193;BME280;55012;47.562;18.414;2024-02-23T11:06:09;98880.28;;;12.25;100.00
68193;BME280;55012;47.562;18.414;2024-02-23T11:08:35;98873.19;;;12.17;100.00
68193;BME280;55012;47.562;18.414;2024-02-23T11:11:11;98866.84;;;12.09;100.00
68193;BME280;55012;47.562;18.414;2024-02-23T11:13:37;98862.47;;;12.01;100.00
68193;BME280;55012;47.562;18.414;2024-02-23T11:16:07;98848.06;;;11.97;100.00
68193;BME280;55012;47.562;18.414;2024-02-23T11:18:36;98856.31;;;12.04;100.00
68193;BME280;55012;47.562;18.414;2024-02-23T11:21:04;98847.81;;;12.06;100.00
68193;BME280;55012;47.562;18.414;2024-02-23T11:23:43;98846.25;;;12.05;100.00
68193;BME280;55012;47.562;18.414;2024-02-23T11:26:10;98845.06;;;12.02;100.00
68193;BME280;55012;47.562;18.414;2024-02-23T11:31:18;98828.31;;;11.97;100.00
68193;BME280;55012;47.562;18.414;2024-02-23T11:33:54;98819.78;;;11.98;100.00
68193;BME280;55012;47.562;18.414;2024-02-23T11:36:32;98812.09;;;12.00;100.00
68193;BME280;55012;47.562;18.414;2024-02-23T11:38:59;98805.28;;;12.10;100.00
68193;BME280;55012;47.562;18.414;2024-02-23T11:41:26;98798.06;;;12.21;100.00
68193;BME280;55012;47.562;18.414;2024-02-23T11:43:53;98791.72;;;12.40;100.00
68193;BME280;55012;47.562;18.414;2024-02-23T11:46:19;98780.88;;;12.70;100.00
68193;BME280;55012;47.562;18.414;2024-02-23T11:48:45;98773.47;;;13.01;100.00
68193;BME280;55012;47.562;18.414;2024-02-23T11:51:15;98763.34;;;13.35;100.00
68193;BME280;55012;47.562;18.414;2024-02-23T11:53:41;98747.97;;;13.53;100.00
68193;BME280;55012;47.562;18.414;2024-02-23T11:56:06;98741.16;;;13.77;100.00
68193;BME280;55012;47.562;18.414;2024-02-23T11:58:33;98716.31;;;13.75;100.00
68193;BME280;55012;47.562;18.414;2024-02-23T12:00:59;98692.59;;;13.72;100.00
68193;BME280;55012;47.562;18.414;2024-02-23T12:03:27;98674.25;;;13.58;100.00
68193;BME280;55012;47.562;18.414;2024-02-23T12:05:53;98648.16;;;13.46;100.00
68193;BME280;55012;47.562;18.414;2024-02-23T12:08:18;98616.94;;;13.23;100.00
68193;BME280;55012;47.562;18.414;2024-02-23T12:10:44;98607.03;;;12.97;100.00
68193;BME280;55012;47.562;18.414;2024-02-23T12:13:10;98601.38;;;12.72;100.00
68193;BME280;55012;47.562;18.414;2024-02-23T12:15:35;98591.47;;;12.49;100.00
68193;BME280;55012;47.562;18.414;2024-02-23T12:18:03;98597.56;;;12.35;100.00
68193;BME280;55012;47.562;18.414;2024-02-23T12:20:28;98601.28;;;12.24;100.00
68193;BME280;55012;47.562;18.414;2024-02-23T12:22:57;98604.28;;;12.15;100.00
68193;BME280;55012;47.562;18.414;2024-02-23T12:25:23;98613.50;;;12.07;100.00
68193;BME280;55012;47.562;18.414;2024-02-23T12:27:54;98614.13;;;11.93;100.00
68193;BME280;55012;47.562;18.414;2024-02-23T12:30:19;98616.75;;;11.86;100.00
68193;BME280;55012;47.562;18.414;2024-02-23T12:32:45;98623.25;;;11.81;100.00
68193;BME280;55012;47.562;18.414;2024-02-23T12:35:11;98627.75;;;11.74;100.00
68193;BME280;55012;47.562;18.414;2024-02-23T12:37:37;98633.81;;;11.64;100.00
68193;BME280;55012;47.562;18.414;2024-02-23T12:40:02;98629.88;;;11.58;100.00
68193;BME280;55012;47.562;18.414;2024-02-23T12:42:28;98630.13;;;11.49;100.00
68193;BME280;55012;47.562;18.414;2024-02-23T12:44:53;98652.53;;;11.46;100.00